Tiempo atmosférico en la estación meteorológica de Izaña, Santa Cruz de Tenerife (2371 m.)



Fecha
DESCASC
Temp. máxima en grados centígrados (hora)
DESCASC
Temp. mínima en grados centígrados (hora)
DESCASC
Temp. media en grados centígrados
DESCASC
Racha de viento máxima en m/sg (hora)
DESCASC
Velocidad máxima media en intervalos de 10 minutos(hora)
DESCASC
Precipitaciones diarias en mm
DESCASC
Precipitaciones de 00:00 a 06:00 en mm
DESCASC
Precipitaciones de 06:00 a 12:00 en mm
DESCASC
Precipitaciones de 12:00 a 18:00 en mm
DESCASC
Precipitaciones de 18:00 a 24:00 en mm
DESCASC
10-11-2019 8.9 (12:50) 1.8 (00:00) 5.3 17.78 (21:50) 13.61 (21:50) 0 0 0 0 0
09-11-2019 7.9 (16:40) 2.2 (00:00) 5.1 16.94 (09:50) 13.89 (03:40) 0 0 0 0 0
08-11-2019 9.5 (16:10) 3.4 (07:40) 6.5 13.89 (18:10) 10.83 (18:10) 0.2 0 0 0.2 0
07-11-2019 11 (12:40) 2.8 (00:00) 6.9 17.22 (13:50) 11.11 (16:20) 0 0 0 0 0
06-11-2019 11.2 (13:20) 1.3 (00:00) 6.2 16.67 (02:10) 13.89 (00:40) 0 0 0 0 0
05-11-2019 10.6 (11:10) 4.5 (00:00) 7.6 26.94 (03:20) 20 (04:30) 0.6 0 0 0 0.6
04-11-2019 12.1 (14:20) 5 (00:00) 8.6 24.72 (04:10) 19.44 (03:40) 0 0 0 0 0
03-11-2019 13.8 (14:00) 7.7 (00:00) 10.8 23.33 (23:00) 19.44 (23:20) 0 0 0 0 0
02-11-2019 14.3 (12:20) 8.3 (00:00) 11.3 20.28 (00:20) 13.33 (00:20) 0 0 0 0 0
01-11-2019 14.1 (13:10) 7.2 (00:00) 10.7 23.33 (09:50) 16.39 (10:00) 0 0 0 0 0
31-10-2019 14.5 (12:50) 7.8 (23:10) 11.2 26.39 (10:40) 14.17 (11:30) 0 0 0 0 0
30-10-2019 14.8 (14:00) 9.1 (00:00) 12 18.61 (23:30) 13.61 (05:40) 0 0 0 0 0
29-10-2019 16.7 (13:50) 10.1 (00:00) 13.4 20.83 (04:40) 18.61 (05:00) 0 0 0 0 0
28-10-2019 16.6 (13:40) 10.7 (00:00) 13.7 16.39 (05:50) 14.17 (23:20) 0 0 0 0 0
27-10-2019 13.8 (10:30) 10.7 (00:00) 12.3 22.22 (18:10) 16.39 (18:20) 0 0 0 0 0
26-10-2019 13.6 (00:00) 8.6 (00:00) 11.1 22.22 (00:10) 16.67 (13:30) 43.6 0 22.2 21.4 0
25-10-2019 15.5 (13:40) 10.5 (00:00) 13 31.39 (19:20) 19.17 (05:00) 0 0 0 0 0
24-10-2019 18 (16:10) 7.9 (00:00) 13 14.17 (10:10) 11.67 (07:00) 0 0 0 0 0
23-10-2019 14.6 (12:30) 2.5 (00:00) 8.6 9.44 (22:20) 8.33 (23:50) 0 0 0 0 0
22-10-2019 9.2 (15:00) 0.3 (00:10) 4.7 13.33 (03:30) 8.61 (04:00) 0 0 0 0 0
21-10-2019 5.1 (14:30) 0 (00:00) 2.5 18.61 (05:40) 16.11 (05:40) 0.2 0.2 0 0 0
20-10-2019 11.9 (13:50) 4.6 (00:00) 8.2 12.22 (21:30) 11.67 (21:30) 5.8 0 0 4.8 1
19-10-2019 17.5 (14:50) 8.1 (00:00) 12.8 9.17 (15:00) 6.11 (23:59) 0 0 0 0 0
18-10-2019 18.6 (17:30) 8.6 (00:00) 13.6 7.22 (13:10) 5.83 (04:40) 0 0 0 0 0
17-10-2019 16.1 (12:40) 8.7 (00:00) 12.4 13.89 (05:40) 11.67 (07:30) 0 0 0 0 0
16-10-2019 14.8 (11:30) 9.1 (00:00) 12 11.39 (18:10) 9.44 (18:10) 0 0 0 0 0
15-10-2019 17.5 (17:00) 8.6 (00:00) 13.1 13.61 (11:10) 10.56 (03:20) 0 0 0 0 0

Gráficas

Temp. máximas Temp. mínimas Temp. medias Precipitaciones Rachas de viento máximas Velocidades máximas media en intervalos de 10 minutos

Datos horarios

Fecha y hora oficial Temperatura (ºC) Velocidad del viento (km/h) Dirección del viento Racha (km/h) Dirección de racha Precipitación (mm) Presión (hPa) Tendencia (hPa) Humedad (%)
2019-11-13 23:00:00 7.5 23 Este 28 Este 0 770.1 0.5 7
2019-11-13 22:00:00 7.4 23 Este 31 Este 0 770 0.7 8
2019-11-13 21:00:00 7.2 22 Este 31 Este 0 769.9 0.5 8
2019-11-13 20:00:00 7.7 21 Este 40 Este 0 769.6 -0.1 5
2019-11-13 19:00:00 7.5 26 Este 37 Este 0 769.3 -0.5 6
2019-11-13 18:00:00 7.6 17 Nordeste 31 Este 0 769.4 -0.3 7
2019-11-13 17:00:00 8.9 19 Nordeste 34 Este 0 769.7 -0.3 12
2019-11-13 16:00:00 9.6 17 Norte 26 Norte 0 769.8 -0.7 18
2019-11-13 15:00:00 11.5 16 Nordeste 31 Nordeste 0 769.7 -1.2 14
2019-11-13 14:00:00 12.8 14 Nordeste 33 Nordeste 0 770 -1.2 13
2019-11-13 13:00:00 11.5 14 Nordeste 27 Norte 0 770.5 -0.6 31
2019-11-13 12:00:00 11.1 14 Nordeste 34 Nordeste 0 770.9 0.1 22
2019-11-13 11:00:00 11.1 16 Nordeste 32 Nordeste 0 771.2 0.8 18
2019-11-13 10:00:00 9.2 15 Nordeste 30 Nordeste 0 771.1 1.2 15
2019-11-13 09:00:00 8.9 15 Nordeste 29 Este 0 770.8 1.1 11
2019-11-13 08:00:00 7.9 17 Nordeste 35 Este 0 770.4 0.8 12
2019-11-13 07:00:00 8.2 25 Nordeste 42 Este 0 769.9 0.2 10
2019-11-13 06:00:00 8.2 19 Nordeste 41 Nordeste 0 769.7 -0.4 9
2019-11-13 05:00:00 8.4 30 Nordeste 40 Nordeste 0 769.6 -0.7 10
2019-11-13 04:00:00 9.3 21 Nordeste 43 Nordeste 0 769.7 -1 22
2019-11-13 03:00:00 9.1 33 Nordeste 49 Este 0 770.1 -0.8 11
2019-11-13 02:00:00 7.1 31 Este 51 Este 0 770.3 -0.4 24
2019-11-13 01:00:00 5.2 28 Este 51 Este 0 770.7 -0.1 63
2019-11-13 00:00:00 5.3 32 Este 55 Este 0 770.9 0 70
2019-11-12 23:00:00 6 44 Este 58 Este 0 770.7 0 66
2019-11-12 22:00:00 6.7 46 Este 58 Este 0 770.8 0.1 58
2019-11-12 21:00:00 6.1 27 Este 41 Este 0 770.9 0.3 47
2019-11-12 20:00:00 8.1 26 Este 41 Este 0 770.7 -0.1 44
2019-11-12 19:00:00 9 17 Nordeste 37 Este 0 770.7 -0.2 41
2019-11-12 18:00:00 9.2 23 Nordeste 41 Este 0 770.6 -0.4 44
2019-11-12 17:00:00 10.7 21 Nordeste 40 Este 0 770.8 -0.5 40
2019-11-12 16:00:00 12.1 20 Este 45 Este 0 770.9 -0.7 28
2019-11-12 15:00:00 13.4 27 Nordeste 39 Nordeste 0 771 -1.1 20
2019-11-12 14:00:00 12.5 19 Nordeste 36 Nordeste 0 771.3 -1.1 35
2019-11-12 13:00:00 11.6 22 Norte 33 Norte 0 771.6 -0.8 34
2019-11-12 12:00:00 11.6 21 Nordeste 32 Norte 0 772.1 0 43
2019-11-12 11:00:00 12.2 22 Nordeste 45 Este 0 772.4 0.8 30
2019-11-12 10:00:00 11.9 22 Nordeste 45 Este 0 772.4 1.4 26
2019-11-12 09:00:00 11.2 18 Nordeste 42 Este 0 772.1 1.1 26
2019-11-12 08:00:00 9.9 24 Nordeste 44 Nordeste 0 771.6 0.6 24
2019-11-12 07:00:00 9.5 25 Nordeste 52 Este 0 771 -0.5 25
2019-11-12 06:00:00 9.8 28 Nordeste 54 Nordeste 0 771 -0.8 22
2019-11-12 05:00:00 8.5 40 Nordeste 55 Nordeste 0 771 -1.2 13
2019-11-12 04:00:00 8.8 46 Nordeste 61 Nordeste 0 771.5 -1 24
2019-11-12 03:00:00 9.3 45 Nordeste 59 Nordeste 0 771.8 -1 32
2019-11-12 02:00:00 10.2 29 Nordeste 50 Nordeste 0 772.2 -0.6 31
2019-11-12 01:00:00 9.7 27 Nordeste 72 Este 0 772.5 -0.9 34
2019-11-12 00:00:00 9.8 52 Nordeste 73 Este 0 772.8 -0.1 34
2019-11-11 23:00:00 9.7 48 Nordeste 76 Este 0 772.8 0.5 33
2019-11-11 22:00:00 9.4 41 Este 67 Este 0 773.4 1 35
2019-11-11 21:00:00 9.1 48 Este 68 Este 0 772.9 0.6 36
2019-11-11 20:00:00 8.9 48 Este 67 Nordeste 0 772.3 -0.3 37
2019-11-11 19:00:00 8.8 43 Este 66 Este 0 772.4 -0.1 36
2019-11-11 18:00:00 8.9 38 Este 58 Este 0 772.3 -0.9 38
2019-11-11 17:00:00 9.8 28 Este 53 Este 0 772.6 -0.8 32
2019-11-11 16:00:00 10.3 32 Este 50 Nordeste 0 772.5 -1.4 42
2019-11-11 15:00:00 11.1 21 Nordeste 44 Este 0 773.2 -1.6 49
2019-11-11 14:00:00 11.8 20 Norte 37 Norte 0 773.4 -1.7 50
2019-11-11 13:00:00 12 25 Norte 45 Norte 0 773.9 -1 50
2019-11-11 12:00:00 11.9 25 Nordeste 45 Nordeste 0 774.8 0.4 39
2019-11-11 11:00:00 10.1 25 Este 57 Este 0 775.1 0.9 47
2019-11-11 10:00:00 9.5 30 Este 47 Este 0 774.9 1 48
2019-11-11 09:00:00 8.4 31 Este 46 Este 0 774.4 0.6 50
2019-11-11 08:00:00 6.4 33 Este 47 Este 0 774.2 0.4 47
2019-11-11 07:00:00 5.1 30 Este 50 Este 0 773.9 0.1 44
2019-11-11 06:00:00 7.1 26 Este 42 Este 0 773.8 -0.3 13
2019-11-11 05:00:00 6.9 24 Este 40 Este 0 773.8 -0.5 17
2019-11-11 04:00:00 8.3 31 Este 50 Este 0 773.8 -0.6 14
2019-11-11 03:00:00 8.2 25 Nordeste 42 Este 0 774.1 -0.6 16
2019-11-11 02:00:00 8.6 24 Nordeste 45 Nordeste 0 774.3 -0.6 9
2019-11-11 01:00:00 8.4 30 Nordeste 50 Nordeste 0 774.4 -0.2 18
2019-11-11 00:00:00 5.8 23 Este 52 Este 0 774.7 0.5 32
2019-11-10 23:00:00 5.9 38 Este 62 Este 0 774.9 1.1 21
2019-11-10 22:00:00 6.6 48 Este 64 Este 0 774.6 0.9 22
2019-11-10 21:00:00 6.9 41 Este 63 Este 0 774.2 0.8 14
2019-11-10 20:00:00 6.7 33 Nordeste 60 Este 0 773.8 0.6 28
2019-11-10 19:00:00 6 20 Nordeste 53 Este 0 773.7 0.5 36
2019-11-10 18:00:00 6.2 35 Nordeste 49 Este 0 773.4 0.3 39
2019-11-10 17:00:00 6.4 31 Este 48 Este 0 773.2 -0.3 42
2019-11-10 16:00:00 6.9 36 Este 53 Este 0 773.2 -0.6 36
2019-11-10 15:00:00 7.7 35 Este 51 Este 0 773.1 -1.3 40
2019-11-10 14:00:00 8.4 34 Este 55 Este 0 773.5 -0.6 40
2019-11-10 13:00:00 8.7 30 Este 50 Este 0 773.8 -0.2 39
2019-11-10 12:00:00 8.4 23 Este 54 Este 0 774.4 0.5 42
2019-11-10 11:00:00 8.2 34 Este 57 Este 0 774.1 1.3 41
2019-11-10 10:00:00 7.7 30 Este 54 Este 0 774 1.7 33
2019-11-10 09:00:00 7.4 40 Este 62 Este 0 773.9 1.5 30
2019-11-10 08:00:00 6.3 43 Este 59 Este 0 772.8 0.7 32
2019-11-10 07:00:00 5.1 20 Nordeste 49 Este 0 772.3 0.2 39
2019-11-10 06:00:00 5.2 27 Nordeste 54 Nordeste 0 772.4 0.1 33
2019-11-10 05:00:00 3.2 22 Nordeste 44 Nordeste 0 772.1 -0.7 67
2019-11-10 04:00:00 2.9 28 Norte 35 Norte 0 772.1 -0.7 98
2019-11-10 03:00:00 6.2 22 Nordeste 41 Nordeste 0 772.3 -0.6 32
2019-11-10 02:00:00 6.2 23 Nordeste 44 Nordeste 0 772.8 -0.3 38
2019-11-10 01:00:00 2.7 30 Norte 49 Nordeste 0 772.8 -0.3 97
2019-11-10 00:00:00 5.9 24 Nordeste 47 Nordeste 0 772.9 0.2 40
2019-11-09 23:00:00 5.3 26 Nordeste 49 Nordeste 0 773.1 0.5 49
2019-11-09 22:00:00 6.4 27 Nordeste 59 Nordeste 0 773.1 0.8 32
2019-11-09 21:00:00 5.4 41 Nordeste 61 Nordeste 0 772.7 1 52
2019-11-09 20:00:00 4.1 32 Nordeste 57 Nordeste 0 772.6 0.8 75
2019-11-09 19:00:00 2.3 33 Nordeste 55 Nordeste 0 772.3 0.6 95
2019-11-09 18:00:00 2.8 36 Norte 48 Nordeste 0 771.7 0.2 96
2019-11-09 17:00:00 7.3 31 Nordeste 59 Nordeste 0 771.8 0.4 35
2019-11-09 16:00:00 7.2 27 Nordeste 52 Nordeste 0 771.7 -0.3 50
2019-11-09 15:00:00 5.6 33 Nordeste 46 Norte 0 771.5 -1 81
2019-11-09 14:00:00 5.6 39 Norte 50 Norte 0 771.4 -1.3 97
2019-11-09 13:00:00 6 36 Norte 57 Norte 0 772 -0.3 64
2019-11-09 12:00:00 5.2 33 Norte 56 Norte 0 772.5 0.7 75
2019-11-09 11:00:00 4.2 31 Norte 56 Norte 0 772.7 1.4 93
2019-11-09 10:00:00 3.4 37 Norte 61 Nordeste 0 772.3 1.3 96
2019-11-09 09:00:00 3.2 36 Norte 60 Nordeste 0 771.8 1 93
2019-11-09 08:00:00 2.6 33 Nordeste 59 Nordeste 0 771.3 0.5 86
2019-11-09 07:00:00 2.8 36 Norte 48 Nordeste 0 771 0.6 98
2019-11-09 06:00:00 5.6 26 Nordeste 45 Nordeste 0 770.8 -0.1 51
2019-11-09 05:00:00 6.1 30 Nordeste 48 Nordeste 0 770.8 -0.5 16
2019-11-09 04:00:00 6.1 47 Nordeste 58 Nordeste 0 770.4 -1.2 22
2019-11-09 03:00:00 6.4 34 Norte 48 Norte 0 770.9 -1.3 8
2019-11-09 02:00:00 6.5 33 Norte 41 Norte 0 771.3 -1 5
2019-11-09 01:00:00 6.7 33 Norte 41 Norte 0 771.6 -0.6 5
2019-11-09 00:00:00 7.2 28 Nordeste 39 Nordeste 0 772.2 0.4 5
2019-11-08 23:00:00 8.8 22 Nordeste 45 Este 0 772.3 0.9 2
2019-11-08 22:00:00 9.4 36 Este 48 Nordeste 0 772.2 1.1 3
2019-11-08 21:00:00 8.8 30 Este 45 Este 0 771.8 1.2 4
2019-11-08 20:00:00 8.3 30 Este 44 Este 0 771.4 0.9 4
2019-11-08 19:00:00 8.2 36 Este 50 Este 0 771.1 0.9 2
2019-11-08 18:00:00 8.3 37 Este 47 Este 0 770.6 0.5 4
2019-11-08 17:00:00 9.1 27 Este 44 Este 0 770.5 0 9
2019-11-08 16:00:00 9.3 29 Este 42 Nordeste 0 770.2 -0.6 13
2019-11-08 15:00:00 8.7 17 Nordeste 36 Nordeste 0 770.1 -0.9 63
2019-11-08 14:00:00 6.6 15 Norte 44 Este 0 770.5 -0.6 99
2019-11-08 13:00:00 6.7 27 Este 47 Este 0.2 770.8 -0.2 99
2019-11-08 12:00:00 6.6 29 Sudeste 41 Sudeste 0 771 0.6 98
2019-11-08 11:00:00 5.6 22 Este 42 Este 0 771.1 1 98
2019-11-08 10:00:00 5.7 23 Este 36 Este 0 771 1.5 98
2019-11-08 09:00:00 5.1 26 Este 36 Este 0 770.4 1 83
2019-11-08 08:00:00 4.6 22 Este 33 Este 0 770.1 1 85
2019-11-08 07:00:00 4.2 20 Este 34 Este 0 769.5 0.4 68
2019-11-08 06:00:00 4.1 20 Este 41 Este 0 769.4 0.1 75
2019-11-08 05:00:00 5 30 Este 40 Este 0 769.1 -0.2 69
2019-11-08 04:00:00 4.3 30 Este 46 Este 0 769.1 -0.2 76
2019-11-08 03:00:00 4.1 29 Este 47 Este 0 769.3 0 79
2019-11-08 02:00:00 3.6 31 Este 46 Este 0 769.3 0 83
2019-11-08 01:00:00 3.6 29 Este 45 Este 0 769.3 0.1 99
2019-11-08 00:00:00 3.5 30 Este 50 Este 0 769.3 0.1 99
2019-11-07 23:00:00 3.7 33 Este 53 Este 0 769.3 0.6 96
2019-11-07 22:00:00 4.5 33 Este 53 Este 0 769.2 1 95
2019-11-07 21:00:00 6 31 Este 50 Este 0 769.2 1.3 76
2019-11-07 20:00:00 5.3 31 Este 51 Este 0 768.7 0.9 91
2019-11-07 19:00:00 6.8 36 Este 50 Este 0 768.2 0.5 64
2019-11-07 18:00:00 6.5 36 Este 54 Este 0 767.9 0.2 66
2019-11-07 17:00:00 7.2 37 Este 55 Este 0 767.8 -0.2 64
2019-11-07 16:00:00 8 36 Este 53 Este 0 767.7 -0.8 66
2019-11-07 15:00:00 8.9 35 Este 61 Este 0 767.7 -1.2 61
2019-11-07 14:00:00 9.7 35 Este 62 Este 0 768 -1.3 56
2019-11-07 13:00:00 10.3 37 Este 56 Este 0 768.5 -0.7 24
2019-11-07 12:00:00 9.7 32 Este 54 Este 0 768.9 0.1 36
2019-11-07 11:00:00 9.9 24 Nordeste 42 Nordeste 0 769.3 1.1 28
2019-11-07 10:00:00 8.6 22 Nordeste 41 Nordeste 0 769.2 1.5 35
2019-11-07 09:00:00 4.7 17 Norte 45 Este 0 768.8 1.2 92
2019-11-07 08:00:00 7.6 29 Este 44 Este 0 768.2 0.5 22
2019-11-07 07:00:00 6.6 32 Este 44 Este 0 767.7 0 6
2019-11-07 06:00:00 6.5 30 Este 42 Este 0 767.6 -0.1 7
2019-11-07 05:00:00 4.3 15 Nordeste 28 Este 0 767.7 -0.4 30
2019-11-07 04:00:00 5.7 22 Este 34 Este 0 767.7 -0.8 20
2019-11-07 03:00:00 6 23 Este 37 Este 0 767.7 -1.3 20
2019-11-07 02:00:00 6.7 18 Este 28 Este 0 768.1 -1.1 22
2019-11-07 01:00:00 4.6 12 Nordeste 24 Norte 0 768.5 -1 49
2019-11-07 00:00:00 3.2 11 Norte 21 Norte 0 769 -0.5 98
2019-11-06 23:00:00 4 17 Nordeste 33 Este 0 769.2 -0.1 80
2019-11-06 22:00:00 3 13 Norte 31 Norte 0 769.5 0.2 97
2019-11-06 21:00:00 4.3 23 Norte 33 Norte 0 769.5 0.5 99
2019-11-06 20:00:00 3 15 Norte 24 Norte 0 769.3 0.4 96
2019-11-06 19:00:00 3.7 17 Norte 26 Norte 0 769.3 0.2 96
2019-11-06 18:00:00 9.1 16 Nordeste 27 Nordeste 0 769 -0.5 18
2019-11-06 17:00:00 4.4 19 Noroeste 28 Noroeste 0 768.9 -1 96
2019-11-06 16:00:00 6.1 17 Norte 25 Norte 0 769.1 -1.4 79
2019-11-06 15:00:00 10.2 8 Norte 25 Norte 0 769.5 -1.5 41
2019-11-06 14:00:00 9.6 13 Norte 24 Nordeste 0 769.9 -1.4 62
2019-11-06 13:00:00 9.7 12 Norte 38 Norte 0 770.5 -0.7 66
2019-11-06 12:00:00 9.3 22 Norte 40 Nordeste 0 771 0 54
2019-11-06 11:00:00 7.9 19 Norte 37 Nordeste 0 771.3 0.6 49
2019-11-06 10:00:00 5 18 Norte 31 Norte 0 771.2 0.6 86
2019-11-06 09:00:00 7.7 18 Norte 27 Norte 0 771 0.7 13
2019-11-06 08:00:00 6.5 21 Norte 32 Norte 0 770.7 0.2 11
2019-11-06 07:00:00 6.3 25 Norte 41 Norte 0 770.6 0.3 14
2019-11-06 06:00:00 5.9 28 Norte 39 Norte 0 770.3 0.1 19
2019-11-06 05:00:00 3.8 26 Noroeste 48 Noroeste 0 770.5 0 39
2019-11-06 04:00:00 4.9 41 Noroeste 53 Noroeste 0 770.3 -0.3 29
2019-11-06 03:00:00 3.6 45 Noroeste 60 Noroeste 0 770.2 -1.2 48
2019-11-06 02:00:00 1.6 47 Noroeste 57 Noroeste 0 770.5 -0.5 92
2019-11-06 01:00:00 4.6 48 Noroeste 54 Noroeste 0 770.6 -1.2 100
2019-11-06 00:00:00 4.8 46 Noroeste 68 Noroeste 0.2 771.4 -0.6 99
2019-11-05 23:00:00 5.7 63 Noroeste 71 Noroeste 0.2 771 -1.1 99
2019-11-05 22:00:00 6.4 50 Norte 57 Norte 0.2 771.8 -0.1 99
2019-11-05 21:00:00 6.6 46 Noroeste 54 Norte 0 772 0.2 99
2019-11-05 20:00:00 6.3 43 Norte 59 Norte 0 772.1 -0.3 98
2019-11-05 19:00:00 5.9 46 Norte 59 Norte 0 771.9 -0.5 98
2019-11-05 18:00:00 7.2 44 Noroeste 53 Noroeste 0 771.8 -0.7 46
2019-11-05 17:00:00 9.2 39 Noroeste 47 Noroeste 0 772.4 -0.2 49
2019-11-05 16:00:00 7.9 43 Noroeste 59 Noroeste 0 772.4 -0.9 67
2019-11-05 15:00:00 6.9 42 Noroeste 57 Noroeste 0 772.5 -0.7 89
2019-11-05 14:00:00 7 47 Noroeste 59 Norte 0 772.6 -1.4 93
2019-11-05 13:00:00 8.8 55 Noroeste 74 Noroeste 0 773.3 -0.4 73
2019-11-05 12:00:00 8.7 64 Noroeste 73 Noroeste 0 773.2 -0.4 64
2019-11-05 11:00:00 10.4 58 Noroeste 74 Noroeste 0 774 1.1 55
2019-11-05 10:00:00 9.1 69 Noroeste 79 Noroeste 0 773.7 0.3 58
2019-11-05 09:00:00 7.7 60 Noroeste 87 Norte 0 773.6 0.6 62
2019-11-05 08:00:00 6.8 66 Noroeste 86 Norte 0 772.9 0.2 66
2019-11-05 07:00:00 6.1 58 Noroeste 87 Noroeste 0 773.4 1.2 72
2019-11-05 06:00:00 5.7 58 Noroeste 87 Noroeste 0 773 0 74
2019-11-05 05:00:00 6.4 69 Noroeste 89 Noroeste 0 772.7 -0.8 67
2019-11-05 04:00:00 6.1 69 Norte 97 Noroeste 0 772.2 -1.6 62
2019-11-05 03:00:00 6.4 66 Norte 83 Norte 0 773 -1.1 62
2019-11-05 02:00:00 6.3 54 Noroeste 71 Noroeste 0 773.5 -0.9 57
2019-11-05 01:00:00 5.6 53 Noroeste 77 Noroeste 0 773.8 -0.4 61
2019-11-05 00:00:00 5.7 60 Noroeste 71 Noroeste 0 774.1 0.1 70
2019-11-04 23:00:00 5.3 57 Noroeste 79 Noroeste 0 774.4 0.2 74
2019-11-04 22:00:00 5.6 59 Noroeste 69 Norte 0 774.2 0.3 67
2019-11-04 21:00:00 6.2 60 Noroeste 70 Noroeste 0 774 0.1 66
2019-11-04 20:00:00 7 52 Noroeste 62 Noroeste 0 774.2 0.4 55
2019-11-04 19:00:00 7.5 50 Norte 62 Noroeste 0 773.9 0 54
2019-11-04 18:00:00 9 46 Norte 59 Norte 0 773.9 0.2 52
2019-11-04 17:00:00 10.7 46 Norte 60 Noroeste 0 773.8 0.3 48
2019-11-04 16:00:00 11.1 45 Norte 65 Norte 0 773.9 -0.3 46
2019-11-04 15:00:00 11.3 54 Norte 71 Norte 0 773.7 -0.9 46
2019-11-04 14:00:00 11.8 62 Norte 80 Norte 0 773.5 -1.6 45
2019-11-04 13:00:00 11.6 59 Norte 72 Norte 0 774.2 -0.4 52
2019-11-04 12:00:00 10.5 61 Norte 72 Norte 0 774.6 0.4 47
2019-11-04 11:00:00 10.7 58 Norte 78 Norte 0 775.1 1.5 35
2019-11-04 10:00:00 10.1 63 Norte 81 Noroeste 0 774.6 1.3 22
2019-11-04 09:00:00 9.3 59 Norte 82 Norte 0 774.2 1.4 25
2019-11-04 08:00:00 8.4 60 Norte 85 Norte 0 773.6 0.9 30
2019-11-04 07:00:00 8.2 61 Noroeste 81 Norte 0 773.3 0.6 27
2019-11-04 06:00:00 7.9 63 Norte 87 Noroeste 0 772.8 -0.1 33
2019-11-04 05:00:00 8 67 Noroeste 89 Noroeste 0 772.7 -0.4 39
2019-11-04 04:00:00 7.9 69 Noroeste 82 Norte 0 772.7 -0.8 45
2019-11-04 03:00:00 7.8 68 Norte 86 Noroeste 0 772.9 -1.2 46
2019-11-04 02:00:00 7.9 67 Noroeste 84 Norte 0 773.1 -1 47
2019-11-04 01:00:00 7.9 64 Noroeste 80 Norte 0 773.5 -0.6 49
2019-11-04 00:00:00 8.3 64 Noroeste 83 Noroeste 0 774.1 -0.5 47
2019-11-03 23:00:00 8.3 65 Noroeste 84 Norte 0 774.1 -0.1 48
2019-11-03 22:00:00 8.1 66 Noroeste 78 Norte 0 774.1 0.1 51
2019-11-03 21:00:00 8.5 60 Noroeste 79 Noroeste 0 774.6 0.4 43
2019-11-03 20:00:00 8.7 68 Noroeste 81 Noroeste 0 774.2 0.3 51
2019-11-03 19:00:00 8.5 66 Noroeste 78 Noroeste 0 774 -0.4 53
2019-11-03 18:00:00 9.6 59 Noroeste 78 Noroeste 0 774.2 -0.7 53
2019-11-03 17:00:00 11.7 64 Noroeste 78 Norte 0 773.9 -1.5 48
2019-11-03 16:00:00 12.5 58 Noroeste 68 Noroeste 0 774.4 -1.5 47
2019-11-03 15:00:00 13 44 Norte 56 Norte 0 774.9 -1.5 46
2019-11-03 14:00:00 13.5 36 Noroeste 47 Norte 0 775.4 -1.4 48
2019-11-03 13:00:00 13.3 38 Noroeste 51 Norte 0 775.9 -0.8 52
2019-11-03 12:00:00 12.9 39 Noroeste 49 Noroeste 0 776.4 -0.2 53
2019-11-03 11:00:00 12 37 Noroeste 44 Noroeste 0 776.8 0.8 59
2019-11-03 10:00:00 10.8 32 Noroeste 38 Norte 0 776.7 1.1 69
2019-11-03 09:00:00 9.7 22 Noroeste 31 Norte 0 776.6 1.1 74
2019-11-03 08:00:00 8.3 24 Noroeste 38 Norte 0 776 0.6 82
2019-11-03 07:00:00 7.9 31 Norte 40 Norte 0 775.6 0 82
2019-11-03 06:00:00 8 27 Norte 37 Norte 0 775.5 -0.2 82
2019-11-03 05:00:00 8.2 23 Norte 34 Nordeste 0 775.4 -0.5 82
2019-11-03 04:00:00 8.4 23 Norte 37 Norte 0 775.6 -0.5 82
2019-11-03 03:00:00 8.7 26 Norte 33 Norte 0 775.7 -0.8 81
2019-11-03 02:00:00 8.9 25 Norte 33 Nordeste 0 775.9 -0.8 81
2019-11-03 01:00:00 9.6 21 Nordeste 36 Nordeste 0 776.1 -0.6 76
2019-11-03 00:00:00 10 17 Nordeste 44 Este 0 776.5 0.1 73
2019-11-02 23:00:00 10.2 30 Este 44 Este 0 776.7 0.6 71
2019-11-02 22:00:00 10.3 30 Este 43 Este 0 776.7 1.1 66
2019-11-02 21:00:00 10.2 31 Este 42 Este 0 776.4 0.8 70
2019-11-02 20:00:00 9.8 26 Este 42 Este 0 776.1 0.7 67
2019-11-02 19:00:00 10.4 29 Este 43 Este 0 775.6 0.1 65
2019-11-02 18:00:00 11 28 Este 50 Este 0 775.6 0.1 64
2019-11-02 17:00:00 11.9 32 Este 50 Este 0 775.4 -0.2 61
2019-11-02 16:00:00 12.9 33 Este 51 Este 0 775.5 -0.5 58
2019-11-02 15:00:00 13.7 34 Este 54 Este 0 775.5 -1 55
2019-11-02 14:00:00 13.9 36 Este 53 Este 0 775.6 -1.2 52
2019-11-02 13:00:00 14.2 40 Este 52 Este 0 776 -0.7 52
2019-11-02 12:00:00 14.2 35 Sudeste 52 Este 0 776.5 0.2 49
2019-11-02 11:00:00 13.6 36 Sudeste 55 Sudeste 0 776.8 1 55
2019-11-02 10:00:00 12.8 39 Sudeste 54 Este 0 776.7 1 56
2019-11-02 09:00:00 11.3 39 Este 53 Este 0 776.3 0.9 67
2019-11-02 08:00:00 9.5 41 Este 54 Este 0 775.8 0.6 72
2019-11-02 07:00:00 8.6 40 Este 62 Sudeste 0 775.7 0.3 74
2019-11-02 06:00:00 8.4 43 Este 62 Este 0 775.4 -0.2 75
2019-11-02 05:00:00 8.5 44 Este 62 Este 0 775.2 -0.5 75
2019-11-02 04:00:00 8.8 44 Este 60 Este 0 775.4 -1 72
2019-11-02 03:00:00 8.6 44 Este 62 Este 0 775.6 -0.9 78
2019-11-02 02:00:00 8.8 45 Este 68 Este 0 775.7 -1.4 77
2019-11-02 01:00:00 9 48 Este 73 Este 0 776.4 -1 74
2019-11-02 00:00:00 9.3 47 Este 67 Este 0 776.5 -0.7 68
2019-11-01 23:00:00 9.3 42 Este 64 Este 0 777.1 0 61
2019-11-01 22:00:00 9.8 42 Este 70 Este 0 777.4 0.6 59
2019-11-01 21:00:00 9.6 42 Este 60 Este 0 777.2 0.4 60
2019-11-01 20:00:00 9.5 43 Este 59 Este 0 777.1 0.5 55
2019-11-01 19:00:00 9.7 42 Este 54 Este 0 776.8 0.1 54
2019-11-01 18:00:00 10.6 44 Sudeste 63 Sudeste 0 776.8 -0.2 49
2019-11-01 17:00:00 11.1 44 Sudeste 63 Sudeste 0 776.6 -0.4 47
2019-11-01 16:00:00 12.1 41 Sudeste 52 Este 0 776.7 -0.9 38
2019-11-01 15:00:00 13.4 39 Sudeste 63 Sudeste 0 777 -1 42
2019-11-01 14:00:00 13.7 45 Sudeste 63 Sudeste 0 777 -1.3 32
2019-11-01 13:00:00 13.7 41 Sudeste 59 Sudeste 0 777.6 -0.3 45
2019-11-01 12:00:00 12.9 45 Sudeste 72 Sudeste 0 778 0 50
2019-11-01 11:00:00 12.5 52 Sudeste 80 Sudeste 0 778.3 0.6 52
2019-11-01 10:00:00 11.8 59 Sudeste 84 Este 0 777.9 0.7 53
2019-11-01 09:00:00 11.1 47 Sudeste 71 Este 0 778 1 51
2019-11-01 08:00:00 9.1 40 Sudeste 59 Este 0 777.7 0.8 57
2019-11-01 07:00:00 8.2 39 Este 59 Este 0 777.2 0.7 52
2019-11-01 06:00:00 8.3 42 Este 57 Este 0 777 0.6 57
2019-11-01 05:00:00 8.3 41 Este 53 Este 0 776.9 0.2 72
2019-11-01 04:00:00 7.2 43 Este 58 Este 0 776.5 -0.7 95
2019-11-01 03:00:00 7.5 50 Este 64 Este 0 776.4 -1.4 94
2019-11-01 02:00:00 7.4 52 Este 65 Este 0 776.7 -1.3 95
2019-11-01 01:00:00 7.6 47 Este 61 Este 0 777.2 -0.9 93
2019-11-01 00:00:00 7.8 44 Este 58 Este 0 777.8 -0.3 88
2019-10-31 23:00:00 7.9 41 Este 53 Este 0 778 0.3 87
2019-10-31 22:00:00 8.9 36 Este 52 Este 0 778.1 0.6 54
2019-10-31 21:00:00 9.4 36 Este 51 Este 0 778.1 0.7 58
2019-10-31 20:00:00 9.8 35 Este 51 Este 0 777.7 0.5 50
2019-10-31 19:00:00 9.5 33 Este 48 Este 0 777.5 0.1 54
2019-10-31 18:00:00 10.1 32 Este 52 Este 0 777.4 0 51
2019-10-31 17:00:00 11 39 Este 57 Este 0 777.2 -0.4 40
2019-10-31 16:00:00 11.9 30 Este 53 Este 0 777.4 -0.6 31
2019-10-31 15:00:00 12.7 27 Este 53 Nordeste 0 777.4 -1.1 39
2019-10-31 14:00:00 13.3 30 Nordeste 66 Este 0 777.6 -0.9 31
2019-10-31 13:00:00 14.1 39 Este 80 Este 0 778 -0.7 24
2019-10-31 12:00:00 14.1 45 Este 85 Este 0 778.5 0.5 34
2019-10-31 11:00:00 13.7 48 Nordeste 95 Este 0 778.5 0.9 38
2019-10-31 10:00:00 13.3 45 Nordeste 81 Este 0 778.7 1.4 43
2019-10-31 09:00:00 12.7 40 Nordeste 73 Nordeste 0 778 0.9 39
2019-10-31 08:00:00 12.1 35 Nordeste 64 Nordeste 0 777.6 0.5 38
2019-10-31 07:00:00 11.2 38 Nordeste 61 Nordeste 0 777.3 0.1 36
2019-10-31 06:00:00 10.8 46 Nordeste 61 Nordeste 0 777.1 -0.3 41
2019-10-31 05:00:00 11.3 44 Nordeste 59 Nordeste 0 777.1 -0.5 39
2019-10-31 04:00:00 11.9 36 Nordeste 51 Nordeste 0 777.2 -0.6 38
2019-10-31 03:00:00 11.9 28 Nordeste 60 Nordeste 0 777.4 -0.7 38
2019-10-31 02:00:00 11.7 29 Nordeste 55 Nordeste 0 777.6 -0.7 53
2019-10-31 01:00:00 11.7 34 Nordeste 62 Nordeste 0 777.8 -0.7 61
2019-10-31 00:00:00 11.6 41 Nordeste 67 Nordeste 0 778.1 0 63
2019-10-30 23:00:00 11.4 45 Nordeste 62 Norte 0 778.3 0.5 64
2019-10-30 22:00:00 10.4 43 Nordeste 59 Nordeste 0 778.5 1.1 76
2019-10-30 21:00:00 10.4 45 Nordeste 58 Nordeste 0 778.1 1.1 80
2019-10-30 20:00:00 10.8 43 Norte 57 Norte 0 777.8 0.7 78
2019-10-30 19:00:00 10.9 39 Norte 53 Norte 0 777.4 0.3 80
2019-10-30 18:00:00 11.7 36 Norte 49 Norte 0 777 0 81
2019-10-30 17:00:00 13.3 37 Norte 47 Norte 0 777.1 0.1 77
2019-10-30 16:00:00 14.4 33 Norte 50 Norte 0 777.1 0 74
2019-10-30 15:00:00 14.3 33 Norte 46 Norte 0 777 -0.7 74
2019-10-30 14:00:00 14.5 35 Norte 53 Norte 0 777 -0.9 65
2019-10-30 13:00:00 14 40 Norte 55 Noroeste 0 777.1 -0.4 66
2019-10-30 12:00:00 14.3 35 Norte 47 Norte 0 777.7 0.8 66
2019-10-30 11:00:00 13.5 33 Norte 48 Norte 0 777.9 1.6 68
2019-10-30 10:00:00 12.7 35 Norte 48 Norte 0 777.5 1.9 65
2019-10-30 09:00:00 11.6 35 Norte 46 Norte 0 776.9 1.7 67
2019-10-30 08:00:00 9.8 37 Noroeste 46 Noroeste 0 776.3 1.7 79
2019-10-30 07:00:00 9.2 41 Noroeste 50 Noroeste 0 775.6 0.9 82
2019-10-30 06:00:00 9.6 47 Noroeste 54 Noroeste 0 775.2 0 80
2019-10-30 05:00:00 10.1 49 Noroeste 52 Noroeste 0 774.6 -0.8 76
2019-10-30 04:00:00 10.3 42 Noroeste 46 Noroeste 0 774.7 -0.6 71
2019-10-30 03:00:00 10.7 35 Noroeste 40 Noroeste 0 775.2 -0.3 69
2019-10-30 02:00:00 10.7 37 Noroeste 45 Noroeste 0 775.4 -0.1 70
2019-10-30 01:00:00 10.4 41 Noroeste 45 Noroeste 0 775.3 -0.2 74
2019-10-30 00:00:00 10.4 40 Noroeste 47 Noroeste 0 775.5 0.3 73
2019-10-29 23:00:00 10.4 40 Noroeste 44 Noroeste 0 775.5 0.8 75
2019-10-29 22:00:00 10.4 38 Noroeste 42 Noroeste 0 775.5 1.4 76
2019-10-29 21:00:00 10.9 38 Noroeste 48 Noroeste 0 775.2 1.5 70
2019-10-29 20:00:00 11.4 44 Noroeste 48 Noroeste 0 774.7 1 67
2019-10-29 19:00:00 11.3 42 Noroeste 46 Noroeste 0 774.1 0.2 72
2019-10-29 18:00:00 12.5 42 Noroeste 53 Noroeste 0 773.7 0.1 69
2019-10-29 17:00:00 14.5 45 Norte 57 Norte 0 773.7 0.1 60
2019-10-29 16:00:00 15.5 38 Norte 53 Norte 0 773.9 -0.2 56
2019-10-29 15:00:00 15.9 42 Norte 55 Noroeste 0 773.6 -0.8 55
2019-10-29 14:00:00 16 42 Norte 54 Norte 0 773.6 -0.9 54
2019-10-29 13:00:00 16 43 Norte 57 Norte 0 774.1 -0.1 54
2019-10-29 12:00:00 15.5 43 Norte 60 Noroeste 0 774.4 0.9 56
2019-10-29 11:00:00 14.6 43 Norte 55 Noroeste 0 774.5 2 61
2019-10-29 10:00:00 13.1 45 Norte 57 Noroeste 0 774.2 2.3 68
2019-10-29 09:00:00 11.7 50 Norte 61 Noroeste 0 773.5 2 72
2019-10-29 08:00:00 10.5 52 Noroeste 66 Noroeste 0 772.5 1.3 74
2019-10-29 07:00:00 10.4 57 Noroeste 67 Noroeste 0 771.9 0.4 74
2019-10-29 06:00:00 10.6 63 Noroeste 75 Noroeste 0 771.5 -0.6 73
2019-10-29 05:00:00 10.9 67 Noroeste 75 Noroeste 0 771.2 -1.2 72
2019-10-29 04:00:00 11 60 Noroeste 68 Noroeste 0 771.5 -0.8 71
2019-10-29 03:00:00 11.2 47 Noroeste 57 Noroeste 0 772.1 -0.9 69
2019-10-29 02:00:00 11 48 Noroeste 62 Noroeste 0 772.4 -0.9 68
2019-10-29 01:00:00 10.5 55 Noroeste 60 Noroeste 0 772.3 -1.3 69
2019-10-29 00:00:00 10.7 47 Noroeste 58 Noroeste 0 773 -0.5 67
2019-10-28 23:00:00 11 44 Noroeste 50 Noroeste 0 773.3 0.1 78
2019-10-28 22:00:00 11 39 Noroeste 48 Noroeste 0 773.6 0.7 80
2019-10-28 21:00:00 11.1 36 Noroeste 46 Noroeste 0 773.5 0.8 80
2019-10-28 20:00:00 11.3 36 Noroeste 45 Noroeste 0 773.2 0.2 78
2019-10-28 19:00:00 11.4 36 Noroeste 48 Noroeste 0 772.9 -0.4 78
2019-10-28 18:00:00 12.7 35 Noroeste 47 Noroeste 0 772.7 -0.8 76
2019-10-28 17:00:00 13.4 35 Noroeste 53 Noroeste 0 773 -0.9 75
2019-10-28 16:00:00 15.3 34 Noroeste 45 Noroeste 0 773.3 -1.1 70
2019-10-28 15:00:00 16.2 30 Noroeste 44 Noroeste 0 773.5 -1.4 66
2019-10-28 14:00:00 16.3 24 Noroeste 37 Noroeste 0 773.9 -1 67
2019-10-28 13:00:00 16.4 19 Noroeste 32 Noroeste 0 774.4 -0.1 63
2019-10-28 12:00:00 16 14 Norte 37 Noroeste 0 774.9 0.8 63
2019-10-28 11:00:00 14.9 23 Noroeste 42 Noroeste 0 774.9 1.4 65
2019-10-28 10:00:00 13 31 Noroeste 41 Noroeste 0 774.5 1.6 68
2019-10-28 09:00:00 11.7 33 Noroeste 46 Noroeste 0 774.1 1.4 71
2019-10-28 08:00:00 12.1 40 Noroeste 54 Noroeste 0 773.5 0.7 66
2019-10-28 07:00:00 11.7 40 Noroeste 55 Noroeste 0 772.9 -0.1 68
2019-10-28 06:00:00 11.8 44 Noroeste 59 Noroeste 0 772.7 -0.8 67
2019-10-28 05:00:00 11.9 38 Noroeste 48 Noroeste 0 772.8 -1 67
2019-10-28 04:00:00 11.9 39 Noroeste 50 Oeste 0 773 -1.2 69
2019-10-28 03:00:00 11.8 33 Noroeste 55 Noroeste 0 773.5 -0.9 68
2019-10-28 02:00:00 12.1 39 Noroeste 50 Noroeste 0 773.8 -0.8 65
2019-10-28 01:00:00 12.1 32 Noroeste 48 Noroeste 0 774.2 -0.7 65
2019-10-28 00:00:00 12.1 39 Noroeste 58 Oeste 0 774.4 -0.3 65
2019-10-27 23:00:00 12.2 42 Noroeste 55 Noroeste 0 774.6 0.4 68
2019-10-27 22:00:00 12.4 37 Noroeste 49 Noroeste 0 774.9 1.1 66
2019-10-27 21:00:00 12.6 42 Noroeste 63 Noroeste 0 774.7 1 64
2019-10-27 20:00:00 12.5 41 Noroeste 56 Oeste 0 774.2 0.4 65
2019-10-27 19:00:00 12.5 45 Noroeste 80 Noroeste 0 773.8 -0.2 66
2019-10-27 18:00:00 12.2 44 Noroeste 60 Noroeste 0 773.7 -0.5 68
2019-10-27 17:00:00 11.8 39 Oeste 59 Oeste 0 773.8 -0.9 71
2019-10-27 16:00:00 11.5 41 Oeste 67 Oeste 0 774 -1.2 69
2019-10-27 15:00:00 10.8 47 Oeste 68 Oeste 0 774.2 -1.5 77
2019-10-27 14:00:00 11.9 39 Oeste 76 Oeste 0 774.7 -1.2 77
2019-10-27 13:00:00 12.7 29 Oeste 42 Oeste 0 775.2 -0.2 68
2019-10-27 12:00:00 13.2 25 Oeste 49 Oeste 0 775.7 0.6 68
2019-10-27 11:00:00 13.2 24 Oeste 49 Oeste 0 775.9 1.4 69
2019-10-27 10:00:00 12.2 38 Oeste 54 Noroeste 0 775.4 1.9 70
2019-10-27 09:00:00 12.8 37 Oeste 50 Oeste 0 775.1 1.1 69
2019-10-27 08:00:00 11.3 39 Noroeste 77 Oeste 0 774.5 0.8 76
2019-10-27 07:00:00 11.6 53 Oeste 70 Oeste 0 773.5 -0.4 71
2019-10-27 06:00:00 11.8 44 Noroeste 55 Oeste 0 774 -0.1 65
2019-10-27 05:00:00 11.6 41 Noroeste 60 Noroeste 0 773.7 -1.1 70
2019-10-27 04:00:00 11.4 40 Oeste 60 Oeste 0 773.9 -1 76
2019-10-27 03:00:00 11.4 39 Oeste 52 Oeste 0 774.1 -1.1 82
2019-10-27 02:00:00 11.7 35 Oeste 50 Oeste 0 774.8 -0.6 88
2019-10-27 01:00:00 12.7 37 Oeste 54 Oeste 0 774.9 -0.6 79
2019-10-27 00:00:00 12.2 33 Oeste 47 Sudoeste 0 775.4 0.4 84
2019-10-26 23:00:00 12.1 37 Sudoeste 48 Sudoeste 0 775.5 0.5 85
2019-10-26 22:00:00 11.1 32 Sudoeste 36 Sudoeste 0 775.3 0.8 99
2019-10-26 21:00:00 11.3 22 Sur 31 Sur 0 775 0.9 99
2019-10-26 20:00:00 12 18 Sudoeste 42 Oeste 0 775 1 85
2019-10-26 19:00:00 12 22 Sudoeste 50 Sudoeste 0 774.5 0.2 96
2019-10-26 18:00:00 12.8 39 Sudoeste 51 Sudoeste 0 774.1 0.4 89
2019-10-26 17:00:00 12.4 39 Sudoeste 51 Sudoeste 0 774 -0.1 95
2019-10-26 16:00:00 11.8 26 Oeste 64 Sudoeste 0.2 774.3 -0.5 93
2019-10-26 15:00:00 11 50 Sudoeste 77 Sudoeste 1.4 773.7 -0.8 93
2019-10-26 14:00:00 10.4 53 Sudoeste 78 Oeste 15.2 774.1 -- 95
2019-10-26 13:00:00 11.5 26 Oeste 59 Sur 4.6 774.8 -- 99
2019-10-26 12:00:00 12.5 40 Sudoeste 56 Sudoeste 2.8 774.5 0.8 99
2019-10-26 11:00:00 12.4 30 Sudoeste 58 Sudoeste 0 -- -- 99
2019-10-26 10:00:00 11.9 39 Sudoeste 66 Oeste 2.8 -- -- 98
2019-10-26 09:00:00 9.3 40 Oeste 58 Sur 16.6 773.7 0.6 97
2019-10-26 08:00:00 12.4 33 Sudoeste 57 Sudoeste 0 773.2 -0.1 97
2019-10-26 07:00:00 12.9 37 Sudoeste 60 Sudoeste 0 773.4 0 85
2019-10-26 06:00:00 13.1 35 Sudoeste 54 Oeste 0 773.1 -0.2 83
2019-10-26 05:00:00 13.1 40 Oeste 64 Sudoeste 0 773.3 -0.1 85
2019-10-26 04:00:00 12.9 40 Oeste 58 Oeste 0 773.4 -0.1 84
2019-10-26 03:00:00 13.1 42 Oeste 66 Oeste 0 773.3 0.1 80
2019-10-26 02:00:00 12.7 51 Oeste 73 Oeste 0 773.4 0 81
2019-10-26 01:00:00 13.1 56 Oeste 80 Oeste 0 773.5 0.6 77
2019-10-26 00:00:00 13.6 57 Oeste 76 Oeste 0 773.2 1.3 69
2019-10-25 23:00:00 13.3 55 Noroeste 90 Oeste 0 773.4 2 69
2019-10-25 22:00:00 13.7 63 Oeste 99 Oeste 0 772.9 1.5 65
2019-10-25 21:00:00 13.9 68 Oeste 105 Oeste 0 771.9 0.1 55
2019-10-25 20:00:00 13.7 63 Oeste 113 Oeste 0 771.4 0.3 60
2019-10-25 19:00:00 14.2 66 Noroeste 100 Noroeste 0 771.4 0 69
2019-10-25 18:00:00 14.3 45 Noroeste 93 Noroeste 0 771.8 0.8 73
2019-10-25 17:00:00 14.4 50 Oeste 77 Noroeste 0 771.1 -0.5 68
2019-10-25 16:00:00 14.4 46 Oeste 85 Oeste 0 771.4 -0.3 65
2019-10-25 15:00:00 14.8 56 Oeste 90 Oeste 0 771 -0.6 39
2019-10-25 14:00:00 15.3 49 Oeste 85 Oeste 0 771.6 0 34
2019-10-25 13:00:00 15.1 54 Oeste 82 Oeste 0 771.7 0.6 32
2019-10-25 12:00:00 14.9 57 Oeste 82 Sudoeste 0 771.6 1.1 29
2019-10-25 11:00:00 14.1 54 Oeste 72 Oeste 0 771.6 1.6 29
2019-10-25 10:00:00 13.4 54 Sudoeste 80 Sudoeste 0 771.1 1.8 35
2019-10-25 09:00:00 13.1 55 Sudoeste 88 Sudoeste 0 770.5 1.3 26
2019-10-25 08:00:00 12.7 56 Oeste 89 Sudoeste 0 770 1.1 22
2019-10-25 07:00:00 12.3 63 Sudoeste 86 Sudoeste 0 769.3 0 21
2019-10-25 06:00:00 11.6 61 Sudoeste 90 Sudoeste 0 769.2 -0.5 28
2019-10-25 05:00:00 10.6 69 Sudoeste 91 Sudoeste 0 768.9 -0.9 32
2019-10-25 04:00:00 11.1 55 Sudoeste 74 Sudoeste 0 769.3 -1 22
2019-10-25 03:00:00 11.4 44 Sudoeste 68 Sudoeste 0 769.7 -0.5 16
2019-10-25 02:00:00 11.2 44 Sudoeste 60 Sudoeste 0 769.8 -0.4 14
2019-10-25 01:00:00 12.1 32 Sudoeste 61 Sudoeste 0 770.3 0.3 13
2019-10-25 00:00:00 11.8 36 Sudoeste 48 Sudoeste 0 770.2 0.7 10
2019-10-24 23:00:00 11.5 21 Oeste 39 Oeste 0 770.2 1.2 5
2019-10-24 22:00:00 12.1 27 Oeste 42 Oeste 0 770 1.2 5
2019-10-24 21:00:00 12.4 28 Oeste 43 Oeste 0 769.5 0.7 10
2019-10-24 20:00:00 12.4 31 Sudoeste 45 Sudoeste 0 769 0.2 10
2019-10-24 19:00:00 13.9 22 Oeste 39 Sudoeste 0 768.8 0 9
2019-10-24 18:00:00 15.7 22 Sudoeste 37 Sudoeste 0 768.8 -0.1 9
2019-10-24 17:00:00 17.3 15 Sudoeste 34 Sudoeste 0 768.8 -0.6 19
2019-10-24 16:00:00 17.8 16 Sudoeste 35 Oeste 0 768.8 -0.9 19
2019-10-24 15:00:00 16.8 18 Sudoeste 36 Sudoeste 0 768.9 -0.9 21
2019-10-24 14:00:00 16.1 22 Sudoeste 41 Sudoeste 0 769.4 -0.2 18
2019-10-24 13:00:00 15.6 29 Sur 43 Sur 0 769.7 0.6 8
2019-10-24 12:00:00 15 30 Sudoeste 45 Sur 0 769.8 1.3 5
2019-10-24 11:00:00 13.4 35 Sudoeste 51 Sur 0 769.6 1.5 2
2019-10-24 10:00:00 11.9 41 Sur 48 Sur 0 769.1 1.4 --
2019-10-24 09:00:00 9.8 36 Sur 46 Sur 0 768.5 0.9 --
2019-10-24 08:00:00 8 37 Sur 48 Sur 0 768.1 0.3 --
2019-10-24 07:00:00 8.1 42 Sur 45 Sur 0 767.7 -0.3 --
2019-10-24 06:00:00 8 39 Sur 44 Sur 0 767.6 -0.4 --
2019-10-24 05:00:00 8.8 37 Sur 42 Sur 0 767.8 -0.7 --
2019-10-24 04:00:00 9 30 Sur 38 Sur 0 768 -0.7 --
2019-10-24 03:00:00 9 34 Sur 39 Sur 0 768 -1.1 --
2019-10-24 02:00:00 9.6 27 Sur 38 Sur 0 768.5 -0.5 --
2019-10-24 01:00:00 9.3 31 Sur 37 Sur 0 768.7 0 --
2019-10-24 00:00:00 9.4 28 Sur 34 Sur 0 769.1 0.7 --
2019-10-23 23:00:00 9.1 24 Sur 34 Sur 0 769 1.2 --
2019-10-23 22:00:00 8.9 26 Sur 33 Sur 0 768.7 1 --
2019-10-23 21:00:00 9.2 24 Sudeste 28 Sudeste 0 768.4 0.6 --
2019-10-23 20:00:00 8.9 24 Sudeste 30 Sudeste 0 767.8 0 --
2019-10-23 19:00:00 9.7 22 Sudeste 28 Sudeste 0 767.7 -0.2 --
2019-10-23 18:00:00 11.7 21 Sudeste 26 Sudeste 0 767.8 -0.2 --
2019-10-23 17:00:00 12.9 13 Sudeste 19 Sudeste 0 767.8 -0.6 --
2019-10-23 16:00:00 13.3 12 Sudeste 20 Este 0 767.9 -0.9 4
2019-10-23 15:00:00 13.9 10 Sudeste 18 Sudeste 0 768 -0.9 7
2019-10-23 14:00:00 13.1 12 Sudeste 21 Este 0 768.4 -0.5 8
2019-10-23 13:00:00 13.6 12 Este 18 Este 0 768.8 0.3 16
2019-10-23 12:00:00 13.6 9 Sudeste 18 Sudeste 0 768.9 1 29
2019-10-23 11:00:00 13.4 9 Este 16 Sudeste 0 768.9 1.4 11
2019-10-23 10:00:00 11.3 12 Sudeste 18 Este 0 768.5 1.2 3
2019-10-23 09:00:00 9.6 11 Este 18 Nordeste 0 767.9 0.5 3
2019-10-23 08:00:00 7.9 13 Nordeste 21 Nordeste 0 767.5 0.1 4
2019-10-23 07:00:00 5.1 11 Nordeste 21 Norte 0 767.3 -0.3 36
2019-10-23 06:00:00 5.8 13 Nordeste 23 Norte 0 767.4 -0.5 29
2019-10-23 05:00:00 3 15 Norte 23 Norte 0 767.4 -0.8 93
2019-10-23 04:00:00 7 13 Nordeste 21 Nordeste 0 767.6 -0.9 9
2019-10-23 03:00:00 7.4 11 Norte 20 Norte 0 767.9 -0.9 8
2019-10-23 02:00:00 3.5 15 Norte 21 Norte 0 768.2 -0.6 31
2019-10-23 01:00:00 6.4 14 Norte 20 Norte 0 768.5 -0.2 4
2019-10-23 00:00:00 6.5 14 Norte 22 Norte 0 768.8 0.6 --
2019-10-22 23:00:00 6.6 13 Norte 23 Nordeste 0 768.8 1 4
2019-10-22 22:00:00 7 19 Nordeste 25 Norte 0 768.7 1.1 7
2019-10-22 21:00:00 6.2 19 Norte 30 Norte 0 768.2 0.7 12
2019-10-22 20:00:00 6.1 22 Norte 33 Norte 0 767.8 0.3 8
2019-10-22 19:00:00 7.2 21 Norte 33 Norte 0 767.6 -0.3 8
2019-10-22 18:00:00 8.6 22 Norte 36 Norte 0 767.5 -0.6 12
2019-10-22 17:00:00 7.5 25 Norte 33 Norte 0 767.5 -0.9 36
2019-10-22 16:00:00 8.9 17 Norte 25 Norte 0 767.9 -1 36
2019-10-22 15:00:00 8.9 14 Norte 22 Norte 0 768.1 -1.1 55
2019-10-22 14:00:00 7 14 Noroeste 25 Noroeste 0 768.4 -0.7 82
2019-10-22 13:00:00 7.3 10 Norte 26 Norte 0 768.9 0.1 77
2019-10-22 12:00:00 8 17 Norte 27 Norte 0 769.2 1 34
2019-10-22 11:00:00 6.7 20 Norte 33 Norte 0 769.1 1.2 44
2019-10-22 10:00:00 5.4 20 Norte 32 Norte 0 768.8 1 34
2019-10-22 09:00:00 4.1 22 Nordeste 39 Nordeste 0 768.2 0.6 59
2019-10-22 08:00:00 1.9 19 Nordeste 31 Nordeste 0 767.9 0.3 53
2019-10-22 07:00:00 4.9 19 Norte 31 Norte 0 767.8 0 17
2019-10-22 06:00:00 3.8 18 Norte 33 Norte 0 767.6 -0.7 43
2019-10-22 05:00:00 4 26 Norte 40 Norte 0 767.6 -0.8 45
2019-10-22 04:00:00 3.5 31 Norte 48 Norte 0 767.8 -0.9 40
2019-10-22 03:00:00 2.8 28 Norte 45 Nordeste 0 768.3 -0.8 41
2019-10-22 02:00:00 1 20 Norte 35 Norte 0 768.4 -0.8 100
2019-10-22 01:00:00 1.2 25 Norte 32 Norte 0 768.7 -0.3 99
2019-10-22 00:00:00 0.5 25 Norte 36 Norte 0 769.1 0.4 78
2019-10-21 23:00:00 0.4 16 Norte 32 Norte 0 769.2 1.5 88
2019-10-21 22:00:00 0.3 26 Norte 34 Norte 0 769 1.2 95
2019-10-21 21:00:00 1.7 21 Norte 47 Noroeste 0 768.7 1.3 43
2019-10-21 20:00:00 0.1 37 Noroeste 46 Noroeste 0 767.7 0.3 72
2019-10-21 19:00:00 1.4 28 Noroeste 52 Norte 0 767.8 0.3 100
2019-10-21 18:00:00 2.2 39 Noroeste 56 Noroeste 0 767.4 -0.5 100
2019-10-21 17:00:00 3.2 42 Noroeste 57 Noroeste 0 767.4 -0.9 100
2019-10-21 16:00:00 3.8 37 Noroeste 49 Noroeste 0 767.5 -1 100
2019-10-21 15:00:00 4.7 38 Norte 50 Noroeste 0 767.9 -0.6 100
2019-10-21 14:00:00 4.3 35 Noroeste 49 Noroeste 0 768.3 -0.4 100
2019-10-21 13:00:00 4.1 40 Norte 46 Norte 0 768.5 0.5 100
2019-10-21 12:00:00 3.8 36 Noroeste 42 Norte 0 768.5 1.4 100
2019-10-21 11:00:00 3.3 22 Norte 37 Norte 0 768.7 2.1 100
2019-10-21 10:00:00 2.9 21 Noroeste 44 Norte 0 768 2.1 100
2019-10-21 09:00:00 2.7 35 Noroeste 49 Noroeste 0 767.1 1.4 100
2019-10-21 08:00:00 2.9 43 Noroeste 56 Noroeste 0 766.6 1.2 100
2019-10-21 07:00:00 2.7 52 Noroeste 62 Norte 0 765.9 -0.2 100
2019-10-21 06:00:00 2.5 54 Noroeste 67 Noroeste 0 765.7 -1 100
2019-10-21 05:00:00 2.6 52 Noroeste 62 Norte 0 765.4 -2 100
2019-10-21 04:00:00 2.9 42 Noroeste 54 Noroeste 0 766.1 -1.8 100
2019-10-21 03:00:00 3.9 41 Noroeste 49 Noroeste 0 766.7 -1.5 100
2019-10-21 02:00:00 4.5 37 Noroeste 42 Noroeste 0 767.4 -0.9 100
2019-10-21 01:00:00 4.7 33 Noroeste 42 Noroeste 0.2 767.9 -0.1 100
2019-10-21 00:00:00 4.7 35 Noroeste 42 Noroeste 0 768.2 0.3 100
2019-10-20 23:00:00 5.3 36 Noroeste 44 Noroeste 0 768.3 0.2 100
2019-10-20 22:00:00 5.4 33 Noroeste 44 Noroeste 0 768 -0.4 99
2019-10-20 21:00:00 6.5 36 Noroeste 43 Norte 0 767.9 -0.7 100
2019-10-20 20:00:00 6.9 26 Norte 31 Noroeste 0.2 768.1 -0.5 99
2019-10-20 19:00:00 7.6 21 Norte 32 Norte 0.8 768.4 -0.2 99
2019-10-20 18:00:00 9.2 12 Nordeste 24 Nordeste 2 768.6 -0.2 99
2019-10-20 17:00:00 9.7 13 Nordeste 22 Norte 1.6 768.6 -0.7 99
2019-10-20 16:00:00 9.4 11 Nordeste 29 Este 0.6 768.6 -1.1 98
2019-10-20 15:00:00 10.2 21 Este 36 Sudeste 0.6 768.8 -0.9 98
2019-10-20 14:00:00 10.7 9 Este 22 Norte 0 769.3 0 84
2019-10-20 13:00:00 11.2 13 Norte 29 Norte 0 769.7 0.4 83
2019-10-20 12:00:00 9.9 22 Norte 41 Noroeste 0 769.7 0.8 85
2019-10-20 11:00:00 8.7 32 Norte 41 Noroeste 0 769.3 0.5 76
2019-10-20 10:00:00 8.3 19 Noroeste 23 Norte 0 769.3 0.7 47
2019-10-20 09:00:00 8 19 Noroeste 23 Noroeste 0 768.9 0.2 52
2019-10-20 08:00:00 7.3 17 Noroeste 19 Noroeste 0 768.8 0.3 35
2019-10-20 07:00:00 8.1 13 Noroeste 16 Noroeste 0 768.6 -0.2 41
2019-10-20 06:00:00 8.7 9 Noroeste 13 Noroeste 0 768.7 -0.4 39
2019-10-20 05:00:00 8.8 13 Noroeste 19 Norte 0 768.5 -1.1 42
2019-10-20 04:00:00 8.6 14 Noroeste 23 Norte 0 768.8 -1.3 31
2019-10-20 03:00:00 8.7 21 Norte 25 Norte 0 769.1 -1.2 33
2019-10-20 02:00:00 8.8 10 Norte 21 Norte 0 769.6 -0.8 26
2019-10-20 01:00:00 9.6 15 Noroeste 25 Noroeste 0 770.1 -0.2 5
2019-10-20 00:00:00 9.4 22 Noroeste 23 Noroeste 0 770.3 0.3 11
2019-10-19 23:00:00 8.1 13 Noroeste 17 Noroeste 0 770.4 0.6 40
2019-10-19 22:00:00 8.5 17 Noroeste 19 Noroeste 0 770.3 0.2 40
2019-10-19 21:00:00 9.9 16 Noroeste 20 Noroeste 0 770 0 28
2019-10-19 20:00:00 11.1 13 Noroeste 18 Noroeste 0 769.8 -0.3 23
2019-10-19 19:00:00 13.7 5 Noroeste 16 Norte 0 770.1 -0.2 35
2019-10-19 18:00:00 14.4 6 Norte 16 Norte 0 770 -0.3 36
2019-10-19 17:00:00 15.1 5 Norte 23 Norte 0 770.1 -0.8 34
2019-10-19 16:00:00 15.6 12 Norte 24 Norte 0 770.3 -1 30
2019-10-19 15:00:00 16.8 11 Noroeste 33 Sur 0 770.3 -1.1 32
2019-10-19 14:00:00 16.3 15 Sur 26 Sur 0 770.9 -0.8 36
2019-10-19 13:00:00 16.9 8 Este 24 Sudeste 0 771.3 -0.1 38
2019-10-19 12:00:00 16.4 15 Sur 24 Sur 0 771.4 0.4 32
2019-10-19 11:00:00 15.7 9 Sudeste 18 Este 0 771.7 0.9 24
2019-10-19 10:00:00 14.6 8 Sur 19 Sur 0 771.4 0.7 24
2019-10-19 09:00:00 12.9 12 Sur 15 Sur 0 771 0.4 27
2019-10-19 08:00:00 11.5 6 Sudoeste 10 Sudoeste 0 770.8 0 25
2019-10-19 07:00:00 11.4 10 Sudoeste 13 Sudoeste 0 770.7 -0.2 28
2019-10-19 06:00:00 11.2 10 Sudoeste 13 Sudoeste 0 770.6 -0.9 35
2019-10-19 05:00:00 10.7 12 Sudoeste 17 Sur 0 770.8 -1 32
2019-10-19 04:00:00 10.8 14 Sur 19 Sur 0 770.9 -1.4 36
2019-10-19 03:00:00 11 16 Sur 20 Sur 0 771.5 -1.1 33
2019-10-19 02:00:00 11.5 16 Sur 19 Sur 0 771.8 -1 32
2019-10-19 01:00:00 11.7 10 Sur 14 Sudeste 0 772.3 -0.3 33
2019-10-19 00:00:00 11.9 10 Sudeste 15 Sudeste 0 772.6 0.3 34
2019-10-18 23:00:00 11.9 13 Sur 15 Sudeste 0 772.8 0.8 35
2019-10-18 22:00:00 12.1 11 Sudeste 14 Sudeste 0 772.6 0.7 34
2019-10-18 21:00:00 12.3 10 Sudeste 13 Sudeste 0 772.3 0.3 33
2019-10-18 20:00:00 13.3 7 Sudeste 9 Sudeste 0 772 -0.2 28
2019-10-18 19:00:00 16.7 3 Sudeste 11 Este 0 771.9 -0.3 20
2019-10-18 18:00:00 17.7 5 Nordeste 15 Norte 0 772 -0.5 18
2019-10-18 17:00:00 18.3 5 Sudeste 18 Sudeste 0 772.2 -1 21
2019-10-18 16:00:00 17.3 12 Sudeste 22 Sudeste 0 772.2 -1.3 22
2019-10-18 15:00:00 17.2 14 Sudeste 25 Sudeste 0 772.5 -1.2 17
2019-10-18 14:00:00 17.7 16 Sudeste 26 Sudeste 0 773.2 -0.3 13
2019-10-18 13:00:00 17.5 15 Sudeste 25 Sudeste 0 773.5 0.4 8
2019-10-18 12:00:00 17.3 10 Sudeste 17 Sudeste 0 773.7 1.1 --
2019-10-18 11:00:00 16.4 6 Nordeste 18 Nordeste 0 773.5 1.1 9
2019-10-18 10:00:00 14.2 7 Nordeste 18 Norte 0 773.1 0.7 --
2019-10-18 09:00:00 11.9 14 Norte 17 Norte 0 772.6 0.3 --
2019-10-18 08:00:00 11.7 15 Norte 16 Norte 0 772.4 0.2 --
2019-10-18 07:00:00 11.9 13 Noroeste 16 Noroeste 0 772.4 -0.1 3
2019-10-18 06:00:00 10.3 17 Noroeste 19 Noroeste 0 772.3 -0.6 23
2019-10-18 05:00:00 10.7 19 Noroeste 23 Noroeste 0 772.2 -0.9 10
2019-10-18 04:00:00 9.7 17 Noroeste 18 Noroeste 0 772.5 -0.9 17
2019-10-18 03:00:00 9.7 13 Noroeste 16 Noroeste 0 772.9 -0.7 24
2019-10-18 02:00:00 9.4 13 Noroeste 19 Noroeste 0 773.1 -0.6 44
2019-10-18 01:00:00 9.4 14 Noroeste 18 Noroeste 0 773.4 0 54
2019-10-18 00:00:00 8.8 13 Noroeste 17 Noroeste 0 773.6 0.8 83
2019-10-17 23:00:00 9.2 13 Noroeste 20 Noroeste 0 773.7 1.2 82
2019-10-17 22:00:00 9.8 16 Noroeste 25 Noroeste 0 773.4 1.2 75
2019-10-17 21:00:00 10.3 24 Noroeste 30 Noroeste 0 772.8 0.5 78
2019-10-17 20:00:00 10.7 26 Noroeste 36 Noroeste 0 772.5 0.2 77
2019-10-17 19:00:00 11.2 31 Noroeste 36 Noroeste 0 772.2 0 42
2019-10-17 18:00:00 14.2 22 Noroeste 32 Noroeste 0 772.3 -0.1 42
2019-10-17 17:00:00 13.7 27 Noroeste 38 Noroeste 0 772.3 -0.7 50
2019-10-17 16:00:00 14 28 Noroeste 39 Noroeste 0 772.2 -1.6 54
2019-10-17 15:00:00 14.6 28 Noroeste 38 Noroeste 0 772.4 -1.5 51
2019-10-17 14:00:00 15.2 24 Noroeste 33 Noroeste 0 773 -0.7 46
2019-10-17 13:00:00 15.7 11 Norte 19 Norte 0 773.8 0.8 43
2019-10-17 12:00:00 14.6 12 Norte 30 Noroeste 0 773.9 1.3 45
2019-10-17 11:00:00 13.4 20 Noroeste 36 Noroeste 0 773.7 1.7 53
2019-10-17 10:00:00 11.3 33 Noroeste 42 Noroeste 0 773 1.4 58
2019-10-17 09:00:00 9.8 36 Noroeste 42 Noroeste 0 772.6 1.1 72
2019-10-17 08:00:00 9.2 40 Noroeste 47 Noroeste 0 772 0.3 75
2019-10-17 07:00:00 9 40 Noroeste 46 Noroeste 0 771.6 -0.6 68
2019-10-17 06:00:00 8.9 35 Noroeste 50 Noroeste 0 771.5 -1.3 67
2019-10-17 05:00:00 10.2 33 Noroeste 41 Noroeste 0 771.7 -1.4 73
2019-10-17 04:00:00 11.1 26 Noroeste 35 Noroeste 0 772.2 -1.1 74
2019-10-17 03:00:00 11.7 15 Noroeste 33 Noroeste 0 772.8 -0.7 68
2019-10-17 02:00:00 11.3 13 Noroeste 26 Noroeste 0 773.1 -0.5 60
2019-10-17 01:00:00 11 17 Noroeste 22 Noroeste 0 773.3 0 53
2019-10-17 00:00:00 10.6 16 Noroeste 24 Noroeste 0 773.5 0.5 54
2019-10-16 23:00:00 10.7 9 Noroeste 24 Oeste 0 773.6 1.2 51
2019-10-16 22:00:00 10.5 18 Noroeste 29 Noroeste 0 773.3 1.1 44
2019-10-16 21:00:00 11.4 12 Noroeste 39 Noroeste 0 773 1.2 44
2019-10-16 20:00:00 11.7 23 Noroeste 35 Noroeste 0 772.4 0.4 42
2019-10-16 19:00:00 12.6 23 Noroeste 41 Noroeste 0 772.2 0.1 48
2019-10-16 18:00:00 13 32 Noroeste 40 Noroeste 0 771.8 -0.6 47
2019-10-16 17:00:00 12.8 23 Noroeste 36 Noroeste 0 772 -0.9 55
2019-10-16 16:00:00 13.9 17 Noroeste 28 Norte 0 772.1 -1.5 48
2019-10-16 15:00:00 13.4 10 Noroeste 28 Norte 0 772.4 -- 45
2019-10-16 14:00:00 13.8 7 Sudoeste 30 Noroeste 0 772.9 -- 48
2019-10-16 13:00:00 14.2 10 Noroeste 30 Sudoeste 0 773.6 -- 47
2019-10-16 12:00:00 14 16 Noroeste 28 Noroeste 0 -- -- 46
2019-10-16 11:00:00 14.2 15 Noroeste 26 Noroeste 0 -- -- 36
2019-10-16 10:00:00 11.8 9 Noroeste 38 Noroeste 0 -- -- 41
2019-10-16 09:00:00 11.2 28 Noroeste 37 Noroeste 0 -- -- 38
2019-10-16 08:00:00 9.8 13 Noroeste 29 Noroeste 0 -- -- 55
2019-10-16 07:00:00 9.8 22 Noroeste 31 Noroeste 0 -- -- 56
2019-10-16 06:00:00 10.2 4 Noroeste 15 Norte 0 -- -- 55
2019-10-16 05:00:00 9.6 9 Norte 12 Norte 0 -- -- 58
2019-10-16 04:00:00 9.7 2 Nordeste 20 Oeste 0 -- -- 57
2019-10-16 03:00:00 9.2 10 Oeste 16 Sudoeste 0 -- -- 57
2019-10-16 02:00:00 9.5 6 Noroeste 26 Noroeste 0 772.6 -0.4 54
2019-10-16 01:00:00 9.6 9 Sudoeste 24 Sudoeste 0 772.9 0.2 55
2019-10-16 00:00:00 10.3 19 Sudoeste 27 Oeste 0 773.1 0.7 54
2019-10-15 23:00:00 10.3 20 Sudoeste 25 Sudoeste 0 773 0.8 52
2019-10-15 22:00:00 10.3 13 Oeste 17 Oeste 0 772.7 0.6 51
2019-10-15 21:00:00 10.5 4 Norte 18 Oeste 0 772.4 0.3 51
2019-10-15 20:00:00 11.6 17 Oeste 26 Oeste 0 772.2 0 46
2019-10-15 19:00:00 13.8 5 Sur 24 Oeste 0 772.1 0.1 49
2019-10-15 18:00:00 15.2 12 Noroeste 40 Sur 0 772.1 0 42
2019-10-15 17:00:00 17.3 20 Oeste 37 Sudoeste 0 772.2 -0.4 29
2019-10-15 16:00:00 15.2 12 Noroeste 24 Noroeste 0 772 -1.2 45
2019-10-15 15:00:00 15.8 13 Norte 24 Norte 0 772.1 -1.2 44
2019-10-15 14:00:00 15.1 16 Norte 36 Sudoeste 0 772.6 -0.6 35
2019-10-15 13:00:00 15.5 10 Norte 40 Sudoeste 0 773.2 0.4 23
2019-10-15 12:00:00 16.6 12 Sur 49 Sudoeste 0 773.3 1.2 19
2019-10-15 11:00:00 15.4 15 Sur 33 Oeste 0 773.2 1.3 20
2019-10-15 10:00:00 14 6 Oeste 22 Noroeste 0 772.8 1.3 12
2019-10-15 09:00:00 11.3 19 Noroeste 27 Noroeste 0 772.1 0.7 10
2019-10-15 08:00:00 10.1 17 Noroeste 35 Noroeste 0 771.9 0.5 10
2019-10-15 07:00:00 10 23 Noroeste 33 Noroeste 0 771.5 0 10
2019-10-15 06:00:00 10 23 Noroeste 33 Noroeste 0 771.4 -0.3 12
2019-10-15 05:00:00 9.9 15 Noroeste 42 Oeste 0 771.4 -0.5 15
2019-10-15 04:00:00 11 31 Oeste 48 Oeste 0 771.5 -1.1 10
2019-10-15 03:00:00 10.5 30 Oeste 44 Oeste 0 771.7 -1 21
2019-10-15 02:00:00 10.6 30 Oeste 40 Oeste 0 771.9 -0.9 23
2019-10-15 01:00:00 9 22 Sudoeste 36 Oeste 0 772.6 -0.2 45
2019-10-15 00:00:00 9.3 24 Oeste 30 Oeste 0 772.7 0.2 42